Time;durP1;ratioP1;P1;durP2;ratioP2;P2;SDS_P1;SDS_P2;PMS_P1;PMS_P2;Temp;Humidity;BMP_temperature;BMP_pressure;BME280_temperature;BME280_humidity;BME280_pressure;Samples;Min_cycle;Max_cycle;Signal;HPM_P1;HPM_P2
2023/10/10 00:01:17;;;;;;;19.70;16.13;;;;;;;15.99;100.00;101995.97;5260094;28;20044;-71
2023/10/10 00:03:49;;;;;;;20.58;18.00;;;;;;;16.04;100.00;101986.63;5257306;28;20044;-71
2023/10/10 00:06:22;;;;;;;20.20;18.05;;;;;;;16.03;100.00;101989.44;5257344;28;20025;-71
2023/10/10 00:08:54;;;;;;;20.40;18.40;;;;;;;16.12;100.00;101993.88;5258490;28;20477;-70
2023/10/10 00:11:26;;;;;;;21.45;19.02;;;;;;;16.02;100.00;101996.53;5259209;28;20062;-74
2023/10/10 00:14:15;;;;;;;21.70;17.55;;;;;;;16.00;100.00;102000.28;5258512;28;20403;-71
2023/10/10 00:16:48;;;;;;;20.40;18.33;;;;;;;15.99;100.00;101996.78;5250431;28;20044;-71
2023/10/10 00:19:30;;;;;;;20.88;18.02;;;;;;;15.93;100.00;101993.84;5257018;28;20048;-71
2023/10/10 00:22:03;;;;;;;21.42;18.63;;;;;;;15.97;100.00;101995.25;5260984;28;20036;-70
2023/10/10 00:24:36;;;;;;;22.85;17.83;;;;;;;15.94;100.00;101990.25;5258822;28;20037;-71
2023/10/10 00:27:13;;;;;;;19.42;17.42;;;;;;;15.93;100.00;101996.50;5258542;28;20047;-71
2023/10/10 00:29:45;;;;;;;19.60;17.40;;;;;;;15.95;100.00;101989.28;5257974;28;20413;-73
2023/10/10 00:32:17;;;;;;;20.73;18.48;;;;;;;15.93;100.00;101986.75;5258337;28;20027;-71
2023/10/10 00:34:50;;;;;;;21.33;18.10;;;;;;;15.95;100.00;101991.94;5256919;28;20045;-70
2023/10/10 00:37:25;;;;;;;;;;;;;;;16.78;100.00;101991.38;5257331;28;20025;-70
2023/10/10 00:40:00;;;;;;;18.90;16.85;;;;;;;15.96;100.00;101988.31;5258385;28;19916;-72
2023/10/10 00:42:41;;;;;;;18.55;16.55;;;;;;;15.96;100.00;101991.78;5257718;28;20037;-71
2023/10/10 00:45:14;;;;;;;23.10;17.65;;;;;;;15.91;100.00;101983.44;5256432;28;20048;-73
2023/10/10 00:47:47;;;;;;;20.02;17.85;;;;;;;15.93;100.00;101980.66;5257314;28;20136;-71
2023/10/10 00:50:23;;;;;;;21.17;18.13;;;;;;;15.90;100.00;101973.81;5257910;28;20029;-71
2023/10/10 00:52:56;;;;;;;19.27;16.75;;;;;;;15.86;100.00;101976.88;5255906;28;20033;-70
2023/10/10 00:55:33;;;;;;;20.52;17.75;;;;;;;15.89;100.00;101981.91;5257093;28;20032;-72
2023/10/10 00:58:06;;;;;;;20.63;18.35;;;;;;;15.79;100.00;101980.06;5258052;28;20033;-71
2023/10/10 01:00:44;;;;;;;19.17;16.85;;;;;;;15.85;100.00;101976.03;5257786;28;20029;-71
2023/10/10 01:03:22;;;;;;;21.00;17.85;;;;;;;15.78;100.00;101964.34;5257339;28;20032;-72
2023/10/10 01:05:55;;;;;;;22.35;18.38;;;;;;;15.78;100.00;101962.53;5255397;28;20041;-71
2023/10/10 01:08:27;;;;;;;20.58;18.42;;;;;;;15.81;100.00;101966.72;5257047;28;20028;-70
2023/10/10 01:11:03;;;;;;;20.42;18.42;;;;;;;15.86;100.00;101961.03;5258092;28;20028;-72
2023/10/10 01:13:35;;;;;;;21.63;19.25;;;;;;;15.77;100.00;101955.59;5257375;28;20036;-71
2023/10/10 01:16:08;;;;;;;22.17;18.25;;;;;;;15.78;100.00;101954.59;5257787;28;20025;-71
2023/10/10 01:19:03;;;;;;;20.08;17.90;;;;;;;15.68;100.00;101945.84;5257574;28;20067;-71
2023/10/10 01:21:43;;;;;;;20.13;18.10;;;;;;;15.89;100.00;101952.81;5257199;28;20037;-72
2023/10/10 01:24:17;;;;;;;21.00;18.80;;;;;;;15.77;100.00;101944.19;5256349;28;20037;-72
2023/10/10 01:26:51;;;;;;;21.55;18.65;;;;;;;15.75;100.00;101940.84;5256906;28;20032;-71
2023/10/10 01:29:26;;;;;;;22.65;19.08;;;;;;;15.73;100.00;101940.16;5256529;28;20393;-71
2023/10/10 01:32:02;;;;;;;21.90;19.60;;;;;;;15.68;100.00;101942.34;5258371;28;20029;-71
2023/10/10 01:34:43;;;;;;;21.52;19.20;;;;;;;15.70;100.00;101935.97;5255720;28;20409;-70
2023/10/10 01:40:00;;;;;;;21.63;19.25;;;;;;;15.78;100.00;101937.94;5256325;28;20402;-70
2023/10/10 01:42:36;;;;;;;22.98;19.63;;;;;;;15.57;100.00;101924.81;5254011;28;20043;-72
2023/10/10 01:45:08;;;;;;;21.15;18.48;;;;;;;15.56;100.00;101923.94;5253257;28;20036;-70
2023/10/10 01:47:41;;;;;;;22.00;19.00;;;;;;;15.48;100.00;101909.75;5256594;28;20049;-71
2023/10/10 01:50:13;;;;;;;21.25;19.05;;;;;;;15.56;100.00;101923.13;5257506;28;20029;-71
2023/10/10 01:52:50;;;;;;;22.48;20.02;;;;;;;15.53;100.00;101913.69;5257828;28;20052;-70
2023/10/10 01:55:24;;;;;;;23.33;20.13;;;;;;;15.51;100.00;101920.06;5255624;28;20020;-73
2023/10/10 01:58:02;;;;;;;21.70;19.55;;;;;;;15.50;100.00;101915.75;5255001;28;20496;-71
2023/10/10 02:00:34;;;;;;;22.27;19.92;;;;;;;15.45;100.00;101917.94;5255720;28;20504;-70
2023/10/10 02:03:06;;;;;;;21.58;18.88;;;;;;;15.49;100.00;101909.66;5254048;28;20486;-71
2023/10/10 02:05:45;;;;;;;22.67;20.35;;;;;;;15.41;100.00;101908.63;5257119;28;20033;-70
2023/10/10 02:08:17;;;;;;;25.73;20.75;;;;;;;15.39;100.00;101908.78;5256317;28;20043;-73
2023/10/10 02:10:49;;;;;;;23.45;21.02;;;;;;;15.33;100.00;101907.50;5255463;28;20025;-72
2023/10/10 02:13:22;;;;;;;21.65;19.48;;;;;;;15.34;100.00;101900.41;5255570;28;20055;-71
2023/10/10 02:15:54;;;;;;;22.83;20.52;;;;;;;15.34;100.00;101900.41;5257237;28;20044;-70
2023/10/10 02:18:39;;;;;;;21.65;19.35;;;;;;;15.30;100.00;101893.72;5255942;28;20037;-71
2023/10/10 02:21:17;;;;;;;23.02;20.73;;;;;;;15.30;100.00;101891.94;5256194;28;20029;-71
2023/10/10 02:23:53;;;;;;;23.77;20.20;;;;;;;15.24;100.00;101895.13;5257270;28;20036;-70
2023/10/10 02:26:35;;;;;;;22.80;20.23;;;;;;;15.24;100.00;101889.00;5255274;28;20059;-71
2023/10/10 02:32:21;;;;;;;22.50;20.08;;;;;;;15.23;100.00;101879.44;5153775;28;20035;-70
2023/10/10 02:35:05;;;;;;;22.50;20.02;;;;;;;15.18;100.00;101882.44;5247400;28;20052;-72
2023/10/10 02:37:45;;;;;;;22.02;19.63;;;;;;;15.20;100.00;101877.03;5261870;28;20041;-70
2023/10/10 02:40:17;;;;;;;26.67;21.85;;;;;;;15.14;100.00;101872.28;5263154;28;20025;-70
2023/10/10 02:42:51;;;;;;;23.52;20.88;;;;;;;15.16;100.00;101876.47;5263259;28;20027;-70
2023/10/10 02:45:28;;;;;;;22.65;20.25;;;;;;;15.15;100.00;101876.59;5262392;28;20033;-70
2023/10/10 02:48:06;;;;;;;22.40;20.00;;;;;;;15.11;100.00;101881.31;5265011;28;20037;-70
2023/10/10 02:50:41;;;;;;;23.05;19.92;;;;;;;15.07;100.00;101875.47;5266545;28;20040;-71
2023/10/10 02:53:15;;;;;;;23.23;20.00;;;;;;;15.08;100.00;101876.31;5265060;28;20029;-70
2023/10/10 02:55:52;;;;;;;23.08;20.52;;;;;;;15.06;100.00;101880.88;5267999;28;20036;-70
2023/10/10 02:58:28;;;;;;;21.48;19.17;;;;;;;15.06;100.00;101879.09;5264780;28;20031;-70
2023/10/10 03:00:59;;;;;;;21.92;18.33;;;;;;;15.09;100.00;101883.25;5265034;28;20037;-70
2023/10/10 03:03:39;;;;;;;23.80;20.38;;;;;;;15.05;100.00;101873.94;5266411;28;20622;-71
2023/10/10 03:06:11;;;;;;;25.05;21.60;;;;;;;15.06;100.00;101878.25;5268041;28;20032;-70
2023/10/10 03:08:51;;;;;;;26.67;23.70;;;;;;;15.15;100.00;101872.16;5269066;28;20028;-70
2023/10/10 03:11:35;;;;;;;28.80;23.15;;;;;;;15.14;100.00;101872.28;5266910;28;20040;-70
2023/10/10 03:14:08;;;;;;;26.17;23.38;;;;;;;15.12;100.00;101875.09;5264288;28;20047;-71
2023/10/10 03:16:44;;;;;;;27.52;24.33;;;;;;;15.14;100.00;101872.28;5271864;28;20024;-70
2023/10/10 03:19:26;;;;;;;29.75;26.10;;;;;;;15.20;100.00;101877.88;5270110;28;20059;-71
2023/10/10 03:25:08;;;;;;;30.02;25.00;;;;;;;15.21;100.00;101868.97;5266618;28;20036;-71
2023/10/10 03:27:53;;;;;;;31.67;26.23;;;;;;;15.23;100.00;101874.16;5266784;28;20405;-71
2023/10/10 03:30:50;;;;;;;30.58;25.98;;;;;;;15.22;100.00;101872.44;5261907;28;20041;-71
2023/10/10 03:33:43;;;;;;;28.70;25.15;;;;;;;15.25;100.00;101872.19;5263642;28;20033;-71
2023/10/10 05:23:34;;;;;;;25.77;22.17;;;;;;;14.99;100.00;101819.06;5261416;28;20025;-73
2023/10/10 05:26:13;;;;;;;25.90;20.02;;;;;;;15.07;100.00;101817.41;5265279;28;20037;-72
2023/10/10 05:28:48;;;;;;;22.95;20.50;;;;;;;14.91;100.00;101817.09;5265998;28;20032;-72
2023/10/10 05:31:21;;;;;;;25.67;20.70;;;;;;;14.91;100.00;101816.25;5265300;28;20044;-72
2023/10/10 05:33:53;;;;;;;24.65;20.27;;;;;;;14.83;100.00;101804.56;5261634;28;20036;-72
2023/10/10 05:36:28;;;;;;;22.75;19.20;;;;;;;14.83;100.00;101809.84;5266314;28;20088;-72
2023/10/10 05:39:00;;;;;;;21.58;18.98;;;;;;;14.79;100.00;101812.88;5265272;28;20041;-72
2023/10/10 05:41:32;;;;;;;21.20;18.80;;;;;;;14.81;100.00;101803.03;5268860;28;20028;-73
2023/10/10 05:44:05;;;;;;;20.67;18.48;;;;;;;14.82;100.00;101802.91;5265022;28;20025;-72
2023/10/10 05:46:36;;;;;;;21.13;18.97;;;;;;;14.78;100.00;101812.06;5258275;28;20036;-72
2023/10/10 05:49:08;;;;;;;21.50;18.45;;;;;;;14.69;100.00;101812.84;5264457;28;20066;-73
2023/10/10 05:51:40;;;;;;;19.95;17.08;;;;;;;14.69;100.00;101809.38;5264368;28;20032;-73
2023/10/10 05:54:12;;;;;;;19.40;17.13;;;;;;;14.66;100.00;101813.13;5264674;28;20024;-72
2023/10/10 05:56:46;;;;;;;19.70;17.60;;;;;;;14.67;100.00;101806.88;5258943;28;20363;-72
2023/10/10 05:59:18;;;;;;;19.88;17.58;;;;;;;14.60;100.00;101805.75;5261530;28;20044;-72
2023/10/10 06:01:50;;;;;;;20.60;16.92;;;;;;;14.54;100.00;101799.19;5265281;28;20498;-72
2023/10/10 06:04:22;;;;;;;20.63;16.83;;;;;;;14.64;100.00;101804.50;5265125;28;20020;-72
2023/10/10 06:06:54;;;;;;;19.98;16.45;;;;;;;14.60;100.00;101798.66;5256999;28;20590;-72
2023/10/10 06:09:27;;;;;;;21.58;16.10;;;;;;;14.58;100.00;101805.88;5259573;28;20044;-72
2023/10/10 06:12:04;;;;;;;21.70;16.80;;;;;;;14.57;100.00;101798.09;5259301;28;20048;-72
2023/10/10 06:14:36;;;;;;;18.17;15.95;;;;;;;14.56;100.00;101796.44;5265939;28;20052;-72
2023/10/10 06:17:08;;;;;;;20.67;15.80;;;;;;;14.57;100.00;101800.72;5260364;28;20496;-72
2023/10/10 06:19:45;;;;;;;19.10;15.00;;;;;;;14.57;100.00;101804.19;5265099;28;20047;-72
2023/10/10 06:22:18;;;;;;;19.50;14.90;;;;;;;14.57;100.00;101803.38;5258879;28;20389;-72
2023/10/10 06:24:57;;;;;;;21.27;14.98;;;;;;;14.64;100.00;101801.03;5263616;28;20032;-72
2023/10/10 06:27:29;;;;;;;23.90;15.45;;;;;;;14.54;100.00;101804.44;5258112;28;20033;-72
2023/10/10 06:30:01;;;;;;;18.35;15.15;;;;;;;14.57;100.00;101803.38;5258572;28;20035;-72
2023/10/10 06:32:33;;;;;;;19.00;14.68;;;;;;;14.55;100.00;101797.41;5260098;28;20037;-72
2023/10/10 06:37:52;;;;;;;17.13;14.05;;;;;;;14.55;100.00;101802.69;5265598;28;20412;-72
2023/10/10 06:40:28;;;;;;;17.23;14.75;;;;;;;14.57;100.00;101806.00;5263392;28;20021;-72
2023/10/10 06:43:07;;;;;;;19.70;14.35;;;;;;;14.57;100.00;101804.19;5264666;28;20025;-72
2023/10/10 06:45:41;;;;;;;19.13;14.00;;;;;;;14.60;100.00;101793.38;5263485;28;20071;-72
2023/10/10 06:48:15;;;;;;;17.98;14.55;;;;;;;14.59;100.00;101801.44;5264880;28;20040;-71
2023/10/10 06:50:49;;;;;;;17.08;14.07;;;;;;;14.61;100.00;101802.13;5264703;28;20037;-72
2023/10/10 06:53:36;;;;;;;20.25;14.68;;;;;;;14.67;100.00;101801.59;5264201;28;20044;-72
2023/10/10 06:56:17;;;;;;;20.13;15.15;;;;;;;14.69;100.00;101797.03;5261805;28;20871;-72
2023/10/10 06:58:49;;;;;;;15.68;13.50;;;;;;;14.72;100.00;101798.56;5260537;28;20043;-72
2023/10/10 07:01:21;;;;;;;18.70;13.45;;;;;;;14.74;100.00;101794.84;5266753;28;20021;-71
2023/10/10 07:03:54;;;;;;;18.48;14.15;;;;;;;14.76;100.00;101792.88;5266664;28;20453;-72
2023/10/10 07:06:28;;;;;;;15.10;13.43;;;;;;;14.81;100.00;101793.34;5265292;28;20036;-72
2023/10/10 07:09:27;;;;;;;18.42;14.48;;;;;;;14.80;100.00;101786.38;5263836;28;20028;-72
2023/10/10 07:12:09;;;;;;;18.65;14.88;;;;;;;14.86;100.00;101792.09;5264550;28;20033;-72
2023/10/10 07:14:46;;;;;;;16.42;13.38;;;;;;;14.92;100.00;101792.38;5251194;28;20037;-72
2023/10/10 07:17:21;;;;;;;17.20;13.57;;;;;;;14.91;100.00;101785.44;5258738;28;20036;-72
2023/10/10 07:22:34;;;;;;;17.88;14.65;;;;;;;15.01;100.00;101781.00;5262409;28;20041;-72
2023/10/10 07:25:07;;;;;;;17.67;14.10;;;;;;;15.08;100.00;101781.31;5270557;28;20390;-72
2023/10/10 07:27:41;;;;;;;19.27;14.10;;;;;;;15.08;100.00;101782.13;5266801;28;20036;-72
2023/10/10 07:30:16;;;;;;;18.58;14.50;;;;;;;15.12;100.00;101787.97;5267397;28;20033;-72
2023/10/10 07:32:50;;;;;;;18.67;14.07;;;;;;;15.18;100.00;101784.78;5266067;28;20035;-73
2023/10/10 07:35:25;;;;;;;18.20;14.45;;;;;;;15.22;100.00;101793.25;5265198;28;20044;-72
2023/10/10 07:37:58;;;;;;;22.90;15.57;;;;;;;15.25;100.00;101787.72;5266709;28;20029;-73
2023/10/10 07:40:31;;;;;;;18.30;14.88;;;;;;;15.25;100.00;101775.34;5267829;28;20017;-73
2023/10/10 07:43:03;;;;;;;18.37;15.10;;;;;;;15.34;100.00;101784.22;5266399;28;20032;-73
2023/10/10 07:45:43;;;;;;;20.33;14.40;;;;;;;15.39;100.00;101779.38;5267194;28;20287;-73
2023/10/10 07:51:07;;;;;;;18.38;14.57;;;;;;;15.47;100.00;101781.34;5267837;28;20041;-73
2023/10/10 07:53:44;;;;;;;17.67;14.27;;;;;;;15.61;100.00;101783.56;5268177;28;20049;-72
2023/10/10 07:56:16;;;;;;;21.95;15.02;;;;;;;15.55;100.00;101777.00;5267961;28;20100;-73
2023/10/10 07:58:56;;;;;;;16.23;14.15;;;;;;;15.62;100.00;101777.28;5268920;28;20040;-72
2023/10/10 08:01:28;;;;;;;16.95;13.63;;;;;;;15.66;100.00;101781.34;5262563;28;20032;-73
2023/10/10 08:04:04;;;;;;;19.98;14.25;;;;;;;15.72;100.00;101786.09;5266872;28;20025;-73
2023/10/10 08:06:38;;;;;;;19.15;14.50;;;;;;;15.79;100.00;101781.88;5264761;28;20032;-73
2023/10/10 08:11:54;;;;;;;16.65;13.60;;;;;;;15.90;100.00;101777.41;5265170;28;20033;-72
2023/10/10 08:14:31;;;;;;;17.30;14.30;;;;;;;16.00;100.00;101781.72;5269548;28;20024;-73
2023/10/10 08:17:11;;;;;;;18.27;13.52;;;;;;;16.10;100.00;101789.63;5265827;28;20040;-73
2023/10/10 08:19:51;;;;;;;16.00;13.23;;;;;;;16.30;100.00;101790.41;5265980;28;20036;-73
2023/10/10 08:22:25;;;;;;;16.98;13.05;;;;;;;16.23;100.00;101784.84;5268716;28;20052;-73
2023/10/10 08:24:57;;;;;;;17.52;13.50;;;;;;;16.25;100.00;101788.19;5264316;28;20032;-72
2023/10/10 08:27:30;;;;;;;14.95;13.35;;;;;;;16.35;100.00;101790.78;5268669;28;20047;-73
2023/10/10 08:30:02;;;;;;;15.63;12.73;;;;;;;16.39;100.00;101789.53;5267574;28;20037;-72
2023/10/10 08:32:34;;;;;;;19.35;13.52;;;;;;;16.43;100.00;101785.59;5264691;28;20031;-73
2023/10/10 08:35:08;;;;;;;16.23;12.20;;;;;;;16.50;100.00;101783.22;5266213;28;20049;-73
2023/10/10 08:37:39;;;;;;;;;;;;;;;17.22;100.00;101782.41;5269679;28;20040;-73
2023/10/10 08:40:19;;;;;;;14.80;11.48;;;;;;;16.67;100.00;101786.94;5268058;28;20396;-72
2023/10/10 08:42:51;;;;;;;17.70;11.48;;;;;;;16.70;100.00;101784.78;5269348;28;20469;-73
2023/10/10 08:45:25;;;;;;;14.95;12.23;;;;;;;16.76;100.00;101780.78;5262135;28;20035;-73
2023/10/10 08:48:02;;;;;;;15.48;11.88;;;;;;;16.77;100.00;101785.91;5266712;28;20044;-73
2023/10/10 08:50:35;;;;;;;17.60;12.05;;;;;;;16.87;100.00;101783.22;5263972;28;20029;-73
2023/10/10 08:53:14;;;;;;;14.32;11.63;;;;;;;17.02;100.00;101794.97;5263752;28;20036;-73
2023/10/10 08:55:51;;;;;;;15.02;11.45;;;;;;;16.99;100.00;101789.97;5266521;28;20040;-71
2023/10/10 08:58:23;;;;;;;13.15;11.30;;;;;;;16.98;100.00;101775.06;5265706;28;20021;-73
2023/10/10 09:00:55;;;;;;;14.07;11.27;;;;;;;17.10;100.00;101794.22;5260078;28;20481;-71
2023/10/10 09:03:28;;;;;;;13.70;11.07;;;;;;;17.22;100.00;101798.31;5264763;28;20378;-71
2023/10/10 09:06:14;;;;;;;16.08;11.25;;;;;;;17.51;100.00;101789.31;5266040;28;20310;-72
2023/10/10 09:08:49;;;;;;;15.45;11.20;;;;;;;17.39;100.00;101785.25;5263916;28;20032;-73
2023/10/10 09:11:23;;;;;;;13.07;9.90;;;;;;;17.50;100.00;101790.28;5261113;28;20037;-72
2023/10/10 09:13:55;;;;;;;14.60;11.15;;;;;;;17.57;100.00;101787.84;5259403;28;20036;-73
2023/10/10 09:16:41;;;;;;;14.48;9.90;;;;;;;17.87;100.00;101787.47;5265187;28;20032;-72
2023/10/10 09:19:14;;;;;;;17.05;11.15;;;;;;;17.75;100.00;101784.22;5265041;28;20042;-73
2023/10/10 09:21:56;;;;;;;15.30;10.23;;;;;;;17.82;100.00;101789.75;5260316;28;20421;-71
2023/10/10 09:24:38;;;;;;;16.10;11.15;;;;;;;18.05;100.00;101783.94;5261150;28;20148;-71
2023/10/10 09:27:28;;;;;;;14.88;10.55;;;;;;;18.22;100.00;101781.25;5262960;28;20031;-72
2023/10/10 09:30:08;;;;;;;15.00;10.07;;;;;;;18.21;100.00;101779.56;5263657;28;20037;-72
2023/10/10 09:32:42;;;;;;;14.40;10.80;;;;;;;18.33;100.00;101781.94;5263060;28;20036;-73
2023/10/10 09:35:14;;;;;;;13.55;10.68;;;;;;;18.40;100.00;101782.97;5263074;28;20399;-72
2023/10/10 09:37:46;;;;;;;13.10;9.80;;;;;;;18.55;100.00;101781.38;5263760;28;20053;-72
2023/10/10 09:40:19;;;;;;;12.57;9.68;;;;;;;18.69;100.00;101794.06;5266616;28;20024;-73
2023/10/10 09:45:52;;;;;;;12.25;9.88;;;;;;;18.89;100.00;101788.50;5264465;28;20047;-72
2023/10/10 09:52:47;;;;;;;15.60;9.05;;;;;;;19.11;100.00;101792.38;5163472;28;20041;-72
2023/10/10 09:54:25;;;;;;;12.68;10.00;;;;;;;19.28;100.00;101796.75;5261170;28;20037;-71
2023/10/10 09:56:58;;;;;;;11.30;9.32;;;;;;;19.37;100.00;101797.56;5265638;28;20482;-71
2023/10/10 09:59:32;;;;;;;12.25;9.20;;;;;;;19.51;100.00;101799.59;5266429;28;20437;-71
2023/10/10 10:02:05;;;;;;;15.00;10.10;;;;;;;19.58;100.00;101797.91;5261396;28;20033;-74
2023/10/10 10:04:41;;;;;;;13.40;9.55;;;;;;;19.62;100.00;101793.97;5264044;28;20050;-71
2023/10/10 10:07:27;;;;;;;13.15;9.88;;;;;;;19.84;100.00;101791.63;5265682;28;20381;-72
2023/10/10 10:10:09;;;;;;;14.75;9.90;;;;;;;20.00;100.00;101782.78;5265904;28;20041;-71
2023/10/10 10:12:52;;;;;;;13.88;9.60;;;;;;;20.11;100.00;101782.41;5261690;28;20617;-71
2023/10/10 10:15:39;;;;;;;11.43;9.20;;;;;;;20.22;100.00;101791.88;5263942;28;20044;-72
2023/10/10 10:18:19;;;;;;;13.40;11.05;;;;;;;20.33;100.00;101779.03;5261805;28;20033;-71
2023/10/10 10:23:45;;;;;;;15.38;10.18;;;;;;;20.63;100.00;101777.44;5255082;28;20043;-73
2023/10/10 10:26:31;;;;;;;14.15;9.25;;;;;;;20.73;100.00;101774.59;5259282;28;20025;-74
2023/10/10 10:29:15;;;;;;;12.18;9.55;;;;;;;20.86;100.00;101768.69;5258787;28;20039;-72
2023/10/10 10:31:57;;;;;;;11.45;9.52;;;;;;;20.94;100.00;101770.47;5259619;28;20044;-72
2023/10/10 10:34:31;;;;;;;14.10;9.57;;;;;;;21.00;100.00;101764.44;5260342;28;20703;-72
2023/10/10 10:37:20;;;;;;;12.63;9.07;;;;;;;21.06;100.00;101775.25;5260886;28;20314;-71
2023/10/10 10:40:23;;;;;;;12.07;9.85;;;;;;;21.29;100.00;101774.38;5266592;28;20032;-72
2023/10/10 10:42:53;;;;;;;12.05;8.75;;;;;;;21.29;100.00;101766.41;5263355;28;20045;-72
2023/10/10 10:45:37;;;;;;;;;;;;;;;22.07;100.00;101766.03;5261879;28;20378;-71
2023/10/10 10:51:22;;;;;;;12.00;7.72;;;;;;;21.76;100.00;101763.53;5266946;28;20028;-72
2023/10/10 10:53:58;;;;;;;12.20;8.57;;;;;;;21.80;100.00;101754.16;5267804;28;20397;-73
2023/10/10 10:59:12;;;;;;;13.82;7.60;;;;;;;22.07;100.00;101760.72;5265075;28;20528;-72
2023/10/10 11:01:57;;;;;;;14.25;9.23;;;;;;;22.10;100.00;101752.34;5263663;28;20029;-74
2023/10/10 11:07:05;;;;;;;10.25;7.82;;;;;;;22.17;94.50;101754.31;5265182;28;20048;-72
2023/10/10 11:09:42;;;;;;;9.82;7.97;;;;;;;22.26;94.33;101743.34;5259532;28;20466;-72
2023/10/10 11:12:21;;;;;;;12.43;7.95;;;;;;;22.34;93.57;101747.75;5268274;28;20029;-73
2023/10/10 11:14:53;;;;;;;14.40;8.52;;;;;;;22.31;90.20;101737.44;5266819;28;20024;-74
2023/10/10 11:17:25;;;;;;;12.03;7.87;;;;;;;22.45;90.46;101738.44;5267023;28;20045;-73
2023/10/10 11:19:57;;;;;;;10.57;8.07;;;;;;;22.47;89.87;101737.25;5267031;28;20288;-73
2023/10/10 11:22:38;;;;;;;11.32;8.68;;;;;;;22.66;87.72;101733.16;5269752;28;20032;-72
2023/10/10 11:25:11;;;;;;;11.43;8.02;;;;;;;22.55;88.14;101718.44;5268060;28;20028;-71
2023/10/10 11:27:43;;;;;;;11.23;7.97;;;;;;;22.77;91.20;101713.16;5266560;28;20020;-73
2023/10/10 11:30:24;;;;;;;12.17;7.77;;;;;;;23.02;91.47;101719.78;5261827;28;20048;-71
2023/10/10 11:33:16;;;;;;;12.57;8.13;;;;;;;23.00;87.88;101711.16;5266533;28;20025;-72
2023/10/10 11:35:50;;;;;;;10.38;8.25;;;;;;;23.11;87.92;101716.97;5265211;28;20047;-72
2023/10/10 11:38:35;;;;;;;11.68;7.93;;;;;;;23.29;88.62;101720.84;5266896;28;20032;-72
2023/10/10 11:41:09;;;;;;;11.15;8.38;;;;;;;23.22;84.12;101713.78;5265194;28;20021;-72
2023/10/10 11:44:02;;;;;;;11.38;8.45;;;;;;;23.65;85.24;101711.06;5263274;28;20473;-71
2023/10/10 11:46:38;;;;;;;15.48;7.97;;;;;;;23.37;85.13;101705.69;5265486;28;20398;-72
2023/10/10 11:49:15;;;;;;;11.18;6.82;;;;;;;23.64;87.52;101704.88;5263614;28;20025;-73
2023/10/10 11:51:47;;;;;;;11.25;7.82;;;;;;;23.72;85.42;101703.94;5260946;28;20038;-72
2023/10/10 11:54:25;;;;;;;11.30;7.37;;;;;;;23.76;84.73;101698.00;5263399;28;20381;-72
2023/10/10 11:56:56;;;;;;;11.88;7.65;;;;;;;23.84;85.13;101705.03;5267702;28;20036;-73
2023/10/10 11:59:32;;;;;;;11.47;7.30;;;;;;;23.88;82.25;101692.91;5262087;28;20545;-73
2023/10/10 12:02:16;;;;;;;12.10;6.97;;;;;;;23.84;80.17;101704.22;5262086;28;20679;-72
2023/10/10 12:04:48;;;;;;;11.52;7.25;;;;;;;23.93;80.11;101695.00;5265240;28;20040;-72
2023/10/10 12:07:24;;;;;;;12.93;7.77;;;;;;;24.07;80.95;101691.38;5263135;28;20041;-72
2023/10/10 12:10:07;;;;;;;12.85;7.32;;;;;;;24.15;77.94;101693.03;5264080;28;20287;-72
2023/10/10 12:12:39;;;;;;;8.55;6.28;;;;;;;24.16;76.06;101697.38;5259492;28;20036;-75
2023/10/10 12:15:15;;;;;;;9.63;6.90;;;;;;;24.13;74.27;101687.91;5263157;28;20378;-72
2023/10/10 12:17:47;;;;;;;8.10;6.38;;;;;;;24.17;76.41;101694.50;5265875;28;20297;-72
2023/10/10 12:20:19;;;;;;;10.25;7.07;;;;;;;24.28;74.77;101693.94;5264391;28;20040;-73
2023/10/10 12:22:51;;;;;;;11.18;6.85;;;;;;;24.37;73.28;101693.75;5265995;28;20397;-73
2023/10/10 12:25:23;;;;;;;12.87;6.90;;;;;;;24.36;72.63;101686.72;5267981;28;20025;-72
2023/10/10 12:28:00;;;;;;;8.93;6.17;;;;;;;24.43;73.15;101685.75;5268454;28;20279;-72
2023/10/10 12:30:32;;;;;;;8.63;6.20;;;;;;;24.40;72.16;101680.00;5262504;28;20387;-73
2023/10/10 12:33:05;;;;;;;10.05;6.72;;;;;;;24.40;72.00;101678.16;5263770;28;20036;-73
2023/10/10 12:35:37;;;;;;;8.82;5.68;;;;;;;24.40;67.55;101671.97;5267486;28;20048;-72
2023/10/10 12:38:09;;;;;;;9.57;5.50;;;;;;;24.47;68.64;101672.78;5266577;28;20024;-72
2023/10/10 12:40:43;;;;;;;10.88;5.13;;;;;;;24.53;67.04;101661.28;5263232;28;20468;-72
2023/10/10 12:43:25;;;;;;;10.93;5.80;;;;;;;24.50;67.21;101664.34;5266059;28;20496;-72
2023/10/10 12:46:00;;;;;;;9.52;5.80;;;;;;;24.45;64.52;101658.78;5267292;28;20048;-73
2023/10/10 12:48:39;;;;;;;13.27;5.65;;;;;;;24.44;66.05;101654.47;5262881;28;20401;-73
2023/10/10 12:51:11;;;;;;;8.52;4.60;;;;;;;24.32;61.25;101659.56;5266061;28;20036;-73
2023/10/10 12:53:43;;;;;;;9.35;5.45;;;;;;;24.33;61.01;101663.88;5262712;28;20055;-72
2023/10/10 12:56:18;;;;;;;8.17;5.00;;;;;;;24.25;64.92;101659.53;5264970;28;20035;-73
2023/10/10 12:58:52;;;;;;;7.65;4.75;;;;;;;24.28;64.92;101650.25;5264854;28;20660;-74
2023/10/10 13:01:25;;;;;;;9.05;5.22;;;;;;;24.31;67.33;101657.88;5266377;28;20017;-72
2023/10/10 13:03:57;;;;;;;;;;;;;;;25.11;63.39;101655.38;5264977;28;20647;-72
2023/10/10 13:06:30;;;;;;;8.93;5.22;;;;;;;24.22;63.59;101654.56;5265392;28;19916;-73
2023/10/10 13:09:08;;;;;;;9.35;5.28;;;;;;;24.14;65.62;101653.91;5260570;28;20047;-72
2023/10/10 13:11:48;;;;;;;7.45;4.97;;;;;;;24.10;63.69;101656.16;5261776;28;20045;-72
2023/10/10 13:14:24;;;;;;;6.72;4.45;;;;;;;24.14;65.90;101656.59;5265368;28;20044;-72
2023/10/10 13:17:28;;;;;;;9.27;4.97;;;;;;;24.15;66.03;101648.34;5265813;28;20024;-72
2023/10/10 13:19:48;;;;;;;9.10;4.65;;;;;;;24.19;67.66;101654.97;5253253;28;20096;-75
2023/10/10 13:22:20;;;;;;;9.32;4.47;;;;;;;24.21;66.03;101650.25;5261369;28;20036;-72
2023/10/10 13:24:52;;;;;;;9.13;5.40;;;;;;;24.31;66.93;101649.03;5261922;28;20028;-72
2023/10/10 13:27:25;;;;;;;8.38;4.75;;;;;;;24.35;66.84;101644.91;5264227;28;20028;-72
2023/10/10 13:29:57;;;;;;;;;;;;;;;25.11;64.62;101650.03;5262230;28;20029;-72
2023/10/10 13:32:28;;;;;;;10.10;5.30;;;;;;;24.47;66.16;101652.22;5260381;28;19916;-75
2023/10/10 13:35:00;;;;;;;10.10;4.70;;;;;;;24.42;65.67;101651.97;5263047;28;20053;-72
2023/10/10 13:37:32;;;;;;;7.67;4.50;;;;;;;24.47;64.17;101657.56;5263387;28;20037;-73
2023/10/10 13:40:05;;;;;;;8.30;4.57;;;;;;;24.52;63.42;101649.75;5264094;28;20375;-72
2023/10/10 13:42:40;;;;;;;9.15;4.78;;;;;;;24.51;65.33;101647.28;5253872;28;20020;-72
2023/10/10 13:45:18;;;;;;;6.60;4.45;;;;;;;24.52;65.03;101647.06;5261562;28;20389;-72
2023/10/10 13:47:50;;;;;;;6.47;4.00;;;;;;;24.49;66.70;101642.09;5261642;28;20028;-74
2023/10/10 13:50:40;;;;;;;10.30;4.40;;;;;;;24.57;65.19;101633.03;5263494;28;20033;-72
2023/10/10 13:53:14;;;;;;;9.55;4.30;;;;;;;24.60;63.06;101642.53;5262912;28;20027;-72
2023/10/10 13:55:46;;;;;;;6.28;3.80;;;;;;;24.64;63.99;101641.09;5261708;28;20041;-72
2023/10/10 13:58:18;;;;;;;7.75;4.07;;;;;;;24.75;62.65;101643.19;5260339;28;20029;-74
2023/10/10 14:00:55;;;;;;;9.63;4.90;;;;;;;24.78;61.87;101645.47;5261709;28;20564;-72
2023/10/10 14:03:29;;;;;;;11.00;4.40;;;;;;;24.74;64.19;101636.19;5265901;28;20291;-72
2023/10/10 14:06:04;;;;;;;9.20;4.47;;;;;;;24.85;62.55;101618.63;5263631;28;20044;-72
2023/10/10 14:08:36;;;;;;;9.25;4.20;;;;;;;24.94;60.30;101623.59;5265159;28;20473;-72
2023/10/10 14:11:08;;;;;;;8.02;4.35;;;;;;;24.90;61.29;101625.03;5263992;28;20036;-72
2023/10/10 14:13:40;;;;;;;7.37;4.20;;;;;;;25.02;61.29;101627.13;5262279;28;20490;-72